createdAt,value
2018-10-21T00:02:08.888Z,92.74
2018-10-21T00:04:38.902Z,93.27
2018-10-21T00:07:09.199Z,93.92
2018-10-21T00:09:39.332Z,94.38
2018-10-21T00:12:09.301Z,95.76
2018-10-21T00:14:39.102Z,96.01
2018-10-21T00:17:08.902Z,96.30
2018-10-21T00:19:38.705Z,95.90
2018-10-21T00:22:08.507Z,96.47
2018-10-21T00:24:38.345Z,96.05
2018-10-21T00:27:08.341Z,95.71
2018-10-21T00:29:38.194Z,94.21
2018-10-21T00:32:08.153Z,94.00
2018-10-21T00:34:38.132Z,94.12
2018-10-21T00:37:07.994Z,92.74
2018-10-21T00:39:37.839Z,92.92
2018-10-21T00:42:08.019Z,93.45
2018-10-21T00:44:37.860Z,93.81
2018-10-21T00:47:07.770Z,93.77
2018-10-21T00:49:37.566Z,94.62
2018-10-21T00:52:08.204Z,94.91
2018-10-21T00:54:38.047Z,95.05
2018-10-21T00:57:08.115Z,95.19
2018-10-21T00:59:38.204Z,95.66
2018-10-21T01:02:08.895Z,95.81
2018-10-21T01:04:38.702Z,96.75
2018-10-21T01:07:08.554Z,97.04
2018-10-21T01:09:38.372Z,98.05
2018-10-21T01:12:08.235Z,97.97
2018-10-21T01:14:38.056Z,98.83
2018-10-21T01:17:07.934Z,98.35
2018-10-21T01:19:37.723Z,98.61
2018-10-21T01:22:07.594Z,99.25
2018-10-21T01:24:37.543Z,99.56
2018-10-21T01:27:07.783Z,100.00
2018-10-21T01:29:37.717Z,100.00
2018-10-21T01:32:07.525Z,100.00
2018-10-21T01:34:37.313Z,100.00
2018-10-21T01:37:07.905Z,100.00
2018-10-21T01:40:49.758Z,100.00
2018-10-21T01:43:21.037Z,100.00
2018-10-21T01:45:50.802Z,100.00
2018-10-21T01:48:22.192Z,100.00
2018-10-21T01:50:51.982Z,100.00
2018-10-21T01:53:22.227Z,100.00
2018-10-21T01:55:52.026Z,100.00
2018-10-21T01:58:21.771Z,100.00
2018-10-21T02:00:51.584Z,100.00
2018-10-21T02:03:21.372Z,100.00
2018-10-21T02:05:51.231Z,100.00
2018-10-21T02:08:21.025Z,100.00
2018-10-21T02:10:50.874Z,100.00
2018-10-21T02:13:20.646Z,100.00
2018-10-21T02:15:50.652Z,100.00
2018-10-21T02:18:20.468Z,100.00
2018-10-21T02:20:50.269Z,100.00
2018-10-21T02:23:20.065Z,100.00
2018-10-21T02:25:50.039Z,100.00
2018-10-21T02:28:19.918Z,100.00
2018-10-21T02:30:49.893Z,100.00
2018-10-21T02:33:19.802Z,100.00
2018-10-21T02:35:49.709Z,100.00
2018-10-21T02:38:19.609Z,100.00
2018-10-21T02:41:46.829Z,100.00
2018-10-21T02:44:18.700Z,100.00
2018-10-21T02:46:49.215Z,100.00
2018-10-21T02:49:19.661Z,100.00
2018-10-21T02:51:55.447Z,100.00
2018-10-21T02:54:30.362Z,100.00
2018-10-21T02:57:00.373Z,100.00
2018-10-21T02:59:30.334Z,100.00
2018-10-21T03:02:00.373Z,100.00
2018-10-21T03:04:30.230Z,100.00
2018-10-21T03:07:00.242Z,100.00
2018-10-21T03:09:30.555Z,100.00
2018-10-21T03:12:00.444Z,100.00
2018-10-21T03:14:30.232Z,100.00
2018-10-21T03:17:00.032Z,100.00
2018-10-21T03:19:29.806Z,100.00
2018-10-21T03:21:59.730Z,100.00
2018-10-21T03:24:29.616Z,100.00
2018-10-21T03:26:59.452Z,100.00
2018-10-21T03:29:29.225Z,100.00
2018-10-21T03:31:59.020Z,100.00
2018-10-21T03:34:28.916Z,100.00
2018-10-21T03:36:58.914Z,100.00
2018-10-21T03:39:28.732Z,100.00
2018-10-21T03:41:58.492Z,100.00
2018-10-21T03:44:28.276Z,100.00
2018-10-21T03:46:58.120Z,100.00
2018-10-21T03:49:27.922Z,100.00
2018-10-21T03:51:57.781Z,100.00
2018-10-21T03:54:27.724Z,100.00
2018-10-21T03:56:57.787Z,100.00
2018-10-21T03:59:27.622Z,100.00
2018-10-21T04:01:57.397Z,100.00
2018-10-21T04:04:27.236Z,100.00
2018-10-21T04:06:57.078Z,100.00
2018-10-21T04:09:26.954Z,100.00
2018-10-21T04:11:56.759Z,100.00
2018-10-21T04:14:26.624Z,100.00
2018-10-21T04:16:56.546Z,100.00
2018-10-21T04:19:26.376Z,100.00
2018-10-21T04:21:56.188Z,100.00
2018-10-21T04:24:26.246Z,100.00
2018-10-21T04:26:56.106Z,100.00
2018-10-21T04:29:26.043Z,100.00
2018-10-21T04:31:55.832Z,100.00
2018-10-21T04:34:25.665Z,100.00
2018-10-21T04:37:09.300Z,100.00
2018-10-21T04:39:55.863Z,100.00
2018-10-21T04:42:26.366Z,100.00
2018-10-21T04:44:56.154Z,100.00
2018-10-21T04:47:25.967Z,100.00
2018-10-21T04:49:56.019Z,100.00
2018-10-21T04:52:25.955Z,100.00
2018-10-21T04:54:57.451Z,100.00
2018-10-21T04:57:27.204Z,100.00
2018-10-21T04:59:57.085Z,100.00
2018-10-21T05:02:27.139Z,100.00
2018-10-21T05:04:56.910Z,100.00
2018-10-21T05:07:26.955Z,100.00
2018-10-21T05:09:56.991Z,100.00
2018-10-21T05:12:26.998Z,100.00
2018-10-21T05:14:56.780Z,100.00
2018-10-21T05:17:26.549Z,100.00
2018-10-21T05:19:56.498Z,100.00
2018-10-21T05:22:26.270Z,100.00
2018-10-21T05:24:56.063Z,100.00
2018-10-21T05:27:25.908Z,100.00
2018-10-21T05:29:55.689Z,100.00
2018-10-21T05:32:25.642Z,100.00
2018-10-21T05:34:55.374Z,100.00
2018-10-21T05:37:25.198Z,100.00
2018-10-21T05:39:55.073Z,100.00
2018-10-21T05:42:25.116Z,100.00
2018-10-21T05:44:54.978Z,100.00
2018-10-21T05:47:25.127Z,100.00
2018-10-21T05:49:54.939Z,100.00
2018-10-21T05:52:24.741Z,100.00
2018-10-21T05:54:54.613Z,100.00
2018-10-21T05:57:24.400Z,100.00
2018-10-21T05:59:54.187Z,100.00
2018-10-21T06:02:23.975Z,100.00
2018-10-21T06:04:54.645Z,100.00
2018-10-21T06:07:24.965Z,100.00
2018-10-21T06:09:54.834Z,100.00
2018-10-21T06:12:24.639Z,100.00
2018-10-21T06:14:54.475Z,100.00
2018-10-21T06:17:27.733Z,100.00
2018-10-21T06:20:45.937Z,100.00
2018-10-21T06:23:15.729Z,100.00
2018-10-21T06:25:45.540Z,100.00
2018-10-21T06:28:15.343Z,100.00
2018-10-21T06:30:45.106Z,100.00
2018-10-21T06:33:15.109Z,100.00
2018-10-21T06:35:44.973Z,100.00
2018-10-21T06:38:14.939Z,100.00
2018-10-21T06:40:44.701Z,100.00
2018-10-21T06:43:14.585Z,100.00
2018-10-21T06:45:44.463Z,100.00
2018-10-21T06:48:14.445Z,100.00
2018-10-21T06:50:44.363Z,100.00
2018-10-21T06:53:14.183Z,100.00
2018-10-21T06:55:44.282Z,100.00
2018-10-21T06:58:14.100Z,100.00
2018-10-21T07:00:43.922Z,100.00
2018-10-21T07:03:13.685Z,100.00
2018-10-21T07:06:20.081Z,100.00
2018-10-21T07:08:50.988Z,100.00
2018-10-21T07:11:20.747Z,100.00
2018-10-21T07:13:50.624Z,100.00
2018-10-21T07:16:20.579Z,100.00
2018-10-21T07:18:51.194Z,100.00
2018-10-21T07:21:21.048Z,100.00
2018-10-21T07:23:50.874Z,100.00
2018-10-21T07:26:20.966Z,100.00
2018-10-21T07:28:51.588Z,100.00
2018-10-21T07:31:21.353Z,100.00
2018-10-21T07:33:51.156Z,100.00
2018-10-21T07:36:20.974Z,100.00
2018-10-21T07:38:50.907Z,100.00
2018-10-21T07:41:20.732Z,100.00
2018-10-21T07:43:50.534Z,100.00
2018-10-21T07:46:20.330Z,100.00
2018-10-21T07:48:50.250Z,100.00
2018-10-21T07:51:20.119Z,100.00
2018-10-21T07:53:49.902Z,100.00
2018-10-21T07:56:19.734Z,100.00
2018-10-21T07:58:49.562Z,100.00
2018-10-21T08:04:55.393Z,100.00
2018-10-21T08:07:42.045Z,100.00
2018-10-21T08:10:11.948Z,100.00
2018-10-21T08:12:41.876Z,100.00
2018-10-21T08:15:11.675Z,100.00
2018-10-21T08:17:41.593Z,100.00
2018-10-21T08:20:11.415Z,100.00
2018-10-21T08:22:41.189Z,100.00
2018-10-21T08:25:10.973Z,100.00
2018-10-21T08:27:40.907Z,100.00
2018-10-21T08:30:10.691Z,100.00
2018-10-21T08:32:40.480Z,100.00
2018-10-21T08:35:10.251Z,100.00
2018-10-21T08:37:40.111Z,100.00
2018-10-21T08:40:10.064Z,100.00
2018-10-21T08:42:40.023Z,100.00
2018-10-21T08:45:10.085Z,100.00
2018-10-21T08:47:40.101Z,100.00
2018-10-21T08:50:10.961Z,100.00
2018-10-21T08:52:40.791Z,100.00
2018-10-21T08:55:11.532Z,100.00
2018-10-21T08:57:41.841Z,100.00
2018-10-21T09:00:17.144Z,100.00
2018-10-21T09:02:47.280Z,100.00
2018-10-21T09:05:18.822Z,100.00
2018-10-21T09:07:48.704Z,100.00
2018-10-21T09:10:18.894Z,100.00
2018-10-21T09:12:49.127Z,100.00
2018-10-21T09:15:20.363Z,100.00
2018-10-21T09:17:50.317Z,100.00
2018-10-21T09:20:20.290Z,100.00
2018-10-21T09:22:50.124Z,100.00
2018-10-21T09:29:43.306Z,100.00
2018-10-21T09:32:13.143Z,100.00
2018-10-21T09:34:43.052Z,100.00
2018-10-21T09:37:12.941Z,100.00
2018-10-21T09:39:43.948Z,100.00
2018-10-21T09:42:13.975Z,100.00
2018-10-21T09:44:44.022Z,100.00
2018-10-21T09:47:14.185Z,100.00
2018-10-21T09:49:44.088Z,100.00
2018-10-21T09:52:14.055Z,100.00
2018-10-21T09:54:44.263Z,100.00
2018-10-21T09:57:14.055Z,100.00
2018-10-21T09:59:43.905Z,100.00
2018-10-21T10:02:18.951Z,100.00
2018-10-21T10:04:48.852Z,100.00
2018-10-21T10:07:18.744Z,100.00
2018-10-21T10:09:48.764Z,100.00
2018-10-21T10:12:18.671Z,100.00
2018-10-21T10:14:48.489Z,100.00
2018-10-21T10:17:18.336Z,100.00
2018-10-21T10:19:48.234Z,100.00
2018-10-21T10:22:18.182Z,100.00
2018-10-21T10:24:48.150Z,99.66
2018-10-21T10:27:17.944Z,98.90
2018-10-21T10:29:47.904Z,98.46
2018-10-21T10:32:17.778Z,97.05
2018-10-21T10:34:48.250Z,94.69
2018-10-21T10:37:18.096Z,94.78
2018-10-21T10:39:48.140Z,91.74
2018-10-21T10:42:18.020Z,90.95
2018-10-21T10:44:48.092Z,89.48
2018-10-21T10:50:54.022Z,89.18
2018-10-21T10:53:23.870Z,89.16
2018-10-21T10:55:53.815Z,87.45
2018-10-21T10:58:23.647Z,86.33
2018-10-21T11:00:53.492Z,86.29
2018-10-21T11:03:23.509Z,86.28
2018-10-21T11:05:53.342Z,85.12
2018-10-21T11:08:23.338Z,84.30
2018-10-21T11:10:53.150Z,84.08
2018-10-21T11:13:23.035Z,83.24
2018-10-21T11:15:52.955Z,83.20
2018-10-21T11:18:22.803Z,81.50
2018-10-21T11:20:52.643Z,81.14
2018-10-21T11:23:22.776Z,80.79
2018-10-21T11:25:52.575Z,81.18
2018-10-21T11:28:22.584Z,80.98
2018-10-21T11:30:57.233Z,79.93
2018-10-21T11:33:27.247Z,78.97
2018-10-21T11:35:57.365Z,78.76
2018-10-21T11:38:28.066Z,79.27
2018-10-21T11:40:58.044Z,78.01
2018-10-21T11:43:27.876Z,78.96
2018-10-21T11:45:57.728Z,78.30
2018-10-21T11:48:27.718Z,77.26
2018-10-21T11:50:57.495Z,76.52
2018-10-21T11:53:27.353Z,76.24
2018-10-21T11:55:57.129Z,75.65
2018-10-21T11:58:26.939Z,74.28
2018-10-21T12:00:56.802Z,73.23
2018-10-21T12:03:27.129Z,73.77
2018-10-21T12:05:56.917Z,72.42
2018-10-21T12:08:26.701Z,71.37
2018-10-21T12:10:56.489Z,69.17
2018-10-21T12:13:26.615Z,69.11
2018-10-21T12:15:56.452Z,68.46
2018-10-21T12:18:26.662Z,68.23
2018-10-21T12:20:56.447Z,67.62
2018-10-21T12:23:26.273Z,66.02
2018-10-21T12:25:56.301Z,66.14
2018-10-21T12:28:26.096Z,67.33
2018-10-21T12:30:55.875Z,67.35
2018-10-21T12:33:25.933Z,65.53
2018-10-21T12:35:55.731Z,64.66
2018-10-21T12:38:25.980Z,63.50
2018-10-21T12:40:55.797Z,64.11
2018-10-21T12:43:25.781Z,64.21
2018-10-21T12:45:55.635Z,63.89
2018-10-21T12:48:25.652Z,64.31
2018-10-21T12:50:55.571Z,63.07
2018-10-21T12:53:25.443Z,63.50
2018-10-21T12:55:55.197Z,63.37
2018-10-21T12:58:25.004Z,61.69
2018-10-21T13:00:54.816Z,61.88
2018-10-21T13:03:24.737Z,62.88
2018-10-21T13:05:54.537Z,62.05
2018-10-21T13:08:24.337Z,60.19
2018-10-21T13:10:54.373Z,60.23
2018-10-21T13:13:24.268Z,60.67
2018-10-21T13:15:54.212Z,59.50
2018-10-21T13:18:24.029Z,59.59
2018-10-21T13:20:53.847Z,59.31
2018-10-21T13:23:23.658Z,58.69
2018-10-21T13:25:53.596Z,59.19
2018-10-21T13:28:23.514Z,58.47
2018-10-21T13:30:53.360Z,59.17
2018-10-21T13:33:23.121Z,57.55
2018-10-21T13:35:52.928Z,58.05
2018-10-21T13:38:22.788Z,58.45
2018-10-21T13:40:52.604Z,58.09
2018-10-21T13:43:22.401Z,58.04
2018-10-21T13:45:52.190Z,58.64
2018-10-21T13:48:22.176Z,58.60
2018-10-21T13:50:51.961Z,59.35
2018-10-21T13:53:21.705Z,59.03
2018-10-21T13:55:51.702Z,58.84
2018-10-21T13:58:21.516Z,58.87
2018-10-21T14:00:51.365Z,58.78
2018-10-21T14:03:21.316Z,58.06
2018-10-21T14:05:51.072Z,58.26
2018-10-21T14:08:21.270Z,57.82
2018-10-21T14:10:51.279Z,58.39
2018-10-21T14:13:21.100Z,57.59
2018-10-21T14:15:50.907Z,57.80
2018-10-21T14:18:21.167Z,57.46
2018-10-21T14:20:50.967Z,58.21
2018-10-21T14:23:20.881Z,58.22
2018-10-21T14:25:50.648Z,58.84
2018-10-21T14:28:20.454Z,58.28
2018-10-21T14:30:50.332Z,57.99
2018-10-21T14:33:20.318Z,58.72
2018-10-21T14:35:50.359Z,57.80
2018-10-21T14:38:20.249Z,57.65
2018-10-21T14:40:50.212Z,57.54
2018-10-21T14:43:20.000Z,55.97
2018-10-21T14:45:49.958Z,57.66
2018-10-21T14:48:19.855Z,57.26
2018-10-21T14:50:49.654Z,57.03
2018-10-21T14:53:19.504Z,56.17
2018-10-21T14:55:49.272Z,56.55
2018-10-21T14:58:19.119Z,56.84
2018-10-21T15:00:49.176Z,56.20
2018-10-21T15:03:19.049Z,56.27
2018-10-21T15:05:49.030Z,56.79
2018-10-21T15:08:18.931Z,57.11
2018-10-21T15:10:49.063Z,56.76
2018-10-21T15:13:18.877Z,57.40
2018-10-21T15:15:48.760Z,57.09
2018-10-21T15:18:18.713Z,57.66
2018-10-21T15:20:48.686Z,58.23
2018-10-21T15:23:18.513Z,58.13
2018-10-21T15:25:48.531Z,57.81
2018-10-21T15:28:18.368Z,58.35
2018-10-21T15:30:48.352Z,58.79
2018-10-21T15:33:18.130Z,57.71
2018-10-21T15:35:48.211Z,59.30
2018-10-21T15:38:18.291Z,59.63
2018-10-21T15:40:48.157Z,59.59
2018-10-21T15:43:18.347Z,60.66
2018-10-21T15:45:48.279Z,61.26
2018-10-21T15:48:18.372Z,60.85
2018-10-21T15:50:48.159Z,61.18
2018-10-21T15:53:17.982Z,60.46
2018-10-21T15:55:47.781Z,61.69
2018-10-21T15:58:17.673Z,61.28
2018-10-21T16:00:47.674Z,60.88
2018-10-21T16:03:17.483Z,60.88
2018-10-21T16:05:47.301Z,61.03
2018-10-21T16:08:17.128Z,61.16
2018-10-21T16:10:47.325Z,60.55
2018-10-21T16:13:17.141Z,61.02
2018-10-21T16:15:47.035Z,61.00
2018-10-21T16:18:16.951Z,60.76
2018-10-21T16:20:46.741Z,61.33
2018-10-21T16:23:16.465Z,61.72
2018-10-21T16:25:46.352Z,62.14
2018-10-21T16:28:16.343Z,62.11
2018-10-21T16:30:46.282Z,61.87
2018-10-21T16:33:16.081Z,61.97
2018-10-21T16:35:45.846Z,62.43
2018-10-21T16:38:15.801Z,62.47
2018-10-21T16:40:45.784Z,62.99
2018-10-21T16:43:15.633Z,63.04
2018-10-21T16:45:45.431Z,63.37
2018-10-21T16:48:15.322Z,63.60
2018-10-21T16:50:45.331Z,63.72
2018-10-21T16:53:15.336Z,63.97
2018-10-21T16:55:45.267Z,64.27
2018-10-21T16:58:15.037Z,64.22
2018-10-21T17:01:41.387Z,64.23
2018-10-21T17:04:11.160Z,64.25
2018-10-21T17:06:40.945Z,64.58
2018-10-21T17:09:13.140Z,64.53
2018-10-21T17:11:45.303Z,64.63
2018-10-21T17:14:15.161Z,65.15
2018-10-21T17:16:44.961Z,65.36
2018-10-21T17:19:14.843Z,65.29
2018-10-21T17:21:44.793Z,65.79
2018-10-21T17:24:14.821Z,65.95
2018-10-21T17:26:45.109Z,65.99
2018-10-21T17:29:15.000Z,66.18
2018-10-21T17:31:44.773Z,66.05
2018-10-21T17:34:14.593Z,65.86
2018-10-21T17:36:44.488Z,66.11
2018-10-21T17:39:15.611Z,65.96
2018-10-21T17:41:45.384Z,66.29
2018-10-21T17:44:15.149Z,66.46
2018-10-21T17:46:45.008Z,66.84
2018-10-21T17:49:14.953Z,66.58
2018-10-21T17:51:44.911Z,66.83
2018-10-21T17:54:14.690Z,66.86
2018-10-21T17:56:49.569Z,66.93
2018-10-21T17:59:19.506Z,67.13
2018-10-21T18:01:49.262Z,67.82
2018-10-21T18:04:19.015Z,68.42
2018-10-21T18:06:48.809Z,68.46
2018-10-21T18:09:18.743Z,68.41
2018-10-21T18:11:48.520Z,68.97
2018-10-21T18:14:18.285Z,69.27
2018-10-21T18:16:48.039Z,69.33
2018-10-21T18:19:17.913Z,68.87
2018-10-21T18:21:47.711Z,69.27
2018-10-21T18:24:17.773Z,69.15
2018-10-21T18:26:47.561Z,69.23
2018-10-21T18:29:17.488Z,69.39
2018-10-21T18:31:47.311Z,69.05
2018-10-21T18:34:17.198Z,69.33
2018-10-21T18:36:47.098Z,69.84
2018-10-21T18:39:16.838Z,70.17
2018-10-21T18:41:46.593Z,70.02
2018-10-21T18:44:16.470Z,70.12
2018-10-21T18:46:46.306Z,70.24
2018-10-21T18:49:16.240Z,70.61
2018-10-21T18:51:46.200Z,70.52
2018-10-21T18:54:16.015Z,70.51
2018-10-21T18:56:45.795Z,70.89
2018-10-21T18:59:15.591Z,71.26
2018-10-21T19:01:45.359Z,71.23
2018-10-21T19:04:15.137Z,71.67
2018-10-21T19:06:45.084Z,71.89
2018-10-21T19:09:14.856Z,71.95
2018-10-21T19:11:44.654Z,71.88
2018-10-21T19:14:14.459Z,71.84
2018-10-21T19:16:44.204Z,71.70
2018-10-21T19:19:14.197Z,72.10
2018-10-21T19:21:44.158Z,72.23
2018-10-21T19:24:13.902Z,72.25
2018-10-21T19:26:43.977Z,72.44
2018-10-21T19:29:13.959Z,72.32
2018-10-21T19:31:43.758Z,72.41
2018-10-21T19:34:13.815Z,72.25
2018-10-21T19:36:43.735Z,72.72
2018-10-21T19:39:14.162Z,72.54
2018-10-21T19:41:43.932Z,72.25
2018-10-21T19:44:13.754Z,72.72
2018-10-21T19:46:43.538Z,73.07
2018-10-21T19:49:13.374Z,73.18
2018-10-21T19:51:43.281Z,72.63
2018-10-21T19:54:13.105Z,72.91
2018-10-21T19:56:42.926Z,73.06
2018-10-21T19:59:12.780Z,73.11
2018-10-21T20:01:42.629Z,73.21
2018-10-21T20:04:12.591Z,73.15
2018-10-21T20:06:42.537Z,73.67
2018-10-21T20:09:12.331Z,73.65
2018-10-21T20:11:42.250Z,73.38
2018-10-21T20:14:12.003Z,73.52
2018-10-21T20:16:41.831Z,73.81
2018-10-21T20:19:11.653Z,73.83
2018-10-21T20:21:41.570Z,73.99
2018-10-21T20:24:11.385Z,73.39
2018-10-21T20:26:41.207Z,73.68
2018-10-21T20:29:10.992Z,74.25
2018-10-21T20:31:40.790Z,74.20
2018-10-21T20:34:10.694Z,74.35
2018-10-21T20:36:40.646Z,73.82
2018-10-21T20:39:11.023Z,73.81
2018-10-21T20:41:40.850Z,73.99
2018-10-21T20:44:10.597Z,73.88
2018-10-21T20:46:40.365Z,74.64
2018-10-21T20:49:10.125Z,74.70
2018-10-21T20:51:40.094Z,74.45
2018-10-21T20:54:09.887Z,74.61
2018-10-21T20:56:39.832Z,74.62
2018-10-21T20:59:09.605Z,74.46
2018-10-21T21:01:39.343Z,74.97
2018-10-21T21:04:09.171Z,75.05
2018-10-21T21:06:39.109Z,75.19
2018-10-21T21:09:09.952Z,75.31
2018-10-21T21:11:39.698Z,75.29
2018-10-21T21:14:09.517Z,75.03
2018-10-21T21:16:39.276Z,75.47
2018-10-21T21:19:09.087Z,76.23
2018-10-21T21:21:38.990Z,76.65
2018-10-21T21:27:45.041Z,77.48
2018-10-21T21:30:14.838Z,77.21
2018-10-21T21:32:44.749Z,77.32
2018-10-21T21:35:14.529Z,77.52
2018-10-21T21:37:44.303Z,77.21
2018-10-21T21:40:14.244Z,77.02
2018-10-21T21:42:44.119Z,76.95
2018-10-21T21:45:13.881Z,76.86
2018-10-21T21:47:43.701Z,76.77
2018-10-21T21:50:13.494Z,77.12
2018-10-21T21:52:43.405Z,77.37
2018-10-21T21:55:13.149Z,77.60
2018-10-21T21:57:42.900Z,77.94
2018-10-21T22:00:15.129Z,78.42
2018-10-21T22:02:45.709Z,78.34
2018-10-21T22:05:15.500Z,78.00
2018-10-21T22:07:45.253Z,77.97
2018-10-21T22:10:15.272Z,77.90
2018-10-21T22:12:45.536Z,78.12
2018-10-21T22:15:15.465Z,78.04
2018-10-21T22:17:45.373Z,78.30
2018-10-21T22:20:15.205Z,78.19
2018-10-21T22:22:45.109Z,78.07
2018-10-21T22:25:15.041Z,78.34
2018-10-21T22:27:44.864Z,78.17
2018-10-21T22:30:14.783Z,78.08
2018-10-21T22:32:44.650Z,78.26
2018-10-21T22:35:14.482Z,78.24
2018-10-21T22:37:44.389Z,78.46
2018-10-21T22:40:14.395Z,78.71
2018-10-21T22:42:44.287Z,78.38
2018-10-21T22:45:14.131Z,78.45
2018-10-21T22:47:43.936Z,78.36
2018-10-21T22:50:13.850Z,78.58
2018-10-21T22:52:44.070Z,78.40
2018-10-21T22:55:13.962Z,78.48
2018-10-21T22:57:43.831Z,79.36
2018-10-21T23:00:14.056Z,79.82
2018-10-21T23:02:44.196Z,80.33
2018-10-21T23:05:13.952Z,80.43
2018-10-21T23:07:43.639Z,79.66
2018-10-21T23:10:13.448Z,79.48
2018-10-21T23:12:43.548Z,79.48
2018-10-21T23:15:13.638Z,79.46
2018-10-21T23:17:43.367Z,79.42
2018-10-21T23:20:13.114Z,79.34
2018-10-21T23:22:42.839Z,78.04
2018-10-21T23:25:12.600Z,78.22
2018-10-21T23:27:42.344Z,78.06
2018-10-21T23:30:12.072Z,77.65
2018-10-21T23:32:42.005Z,77.74
2018-10-21T23:35:11.741Z,78.09
2018-10-21T23:37:41.477Z,78.24
2018-10-21T23:40:11.247Z,78.28
2018-10-21T23:42:41.136Z,78.60
2018-10-21T23:45:10.891Z,78.76
2018-10-21T23:47:41.189Z,78.95
2018-10-21T23:50:10.937Z,79.12
2018-10-21T23:52:40.629Z,78.88
2018-10-21T23:55:10.343Z,79.05
2018-10-21T23:57:40.067Z,79.09
